Airfield :
LOGIN :

Register | Disclaimer

   EN    FR    IT 

 










Legend :    VFR   Marginal VFR   IFR   Intensive IFR   Very Intensive IFR
Visi :
Ceiling :
>= 8 km
>= 3000ft
5 to 8 km
1000 to 3000 ft
1500m to 5 km
500 to 1000 ft
800 to 1500m
200 to 500 ft
< 800m
< 200 ft
Symbols :   Thunderstorms  Fog  Heavy snow  Heavy precipitations  Wind > 20 kt
SIGMETs :     Misc.  Thunderstorms  Icing  Turbulence  Mountain Waves  Volcanic Ashes







- Airport Elevation : 79 ft
- IATA code : SPU


LDSP - Split

CURRENT METAR :
  • 152330Z AUTO 36003KT 310V070 CAVOK 02/M07 Q1017

EXPIRED METARs :
  • 152300Z AUTO 32006KT 280V020 CAVOK 02/M06 Q1017
  • 152230Z AUTO VRB08KT CAVOK 03/M06 Q1016
  • 152200Z 35005KT 290V030 9999 FEW056 02/M06 Q1017 NOSIG
  • 152130Z 34009KT 310V030 9999 FEW056 02/M06 Q1016 NOSIG
  • 152100Z 35009KT 310V020 9999 FEW054 03/M06 Q1016 NOSIG

TAF TAF LDSP
Valid from the 16 at 00:00 until the 17 at 00:00 UTC


152325Z 1600/1700 34008KT CAVOK TX06/1613Z TNM02/1605Z
BECMG 1618/1620 04008KT
No reported NOTAMs for that airfield.



MET'MAP, your aeronautical weather chart ! - Copyright ORBIFLY December 2007 - Disclaimer

ORBIFLY MET'MAP TEAM :

Programming & Development : Alexandra Zaïnal
Concept & Development : Baudouin d'Aumeries
Co-Development & Prog : Marc-Olivier Méhu
Technical & hardware support : Manuel Goepfert

Contact : metmap@orbifly.com




SOURCES & CREDITS :

   NOAA